createdAt,value
2022-11-24T00:01:16.642Z,13.95
2022-11-24T00:03:45.545Z,14.05
2022-11-24T00:06:15.530Z,14.35
2022-11-24T00:08:46.448Z,14.37
2022-11-24T00:11:16.389Z,14.36
2022-11-24T00:13:45.115Z,13.99
2022-11-24T00:16:15.132Z,13.84
2022-11-24T00:18:45.250Z,14.33
2022-11-24T00:21:14.196Z,13.97
2022-11-24T00:23:42.487Z,13.90
2022-11-24T00:26:13.639Z,13.70
2022-11-24T00:28:42.812Z,13.88
2022-11-24T00:31:21.743Z,13.94
2022-11-24T00:33:51.750Z,13.81
2022-11-24T00:36:22.597Z,14.30
2022-11-24T00:38:54.462Z,14.19
2022-11-24T00:41:24.400Z,14.33
2022-11-24T00:43:52.797Z,14.48
2022-11-24T00:46:21.301Z,14.35
2022-11-24T00:48:49.736Z,14.06
2022-11-24T00:51:19.611Z,13.98
2022-11-24T00:53:48.019Z,14.13
2022-11-24T00:56:16.380Z,14.23
2022-11-24T00:58:46.077Z,14.30
2022-11-24T01:01:15.824Z,14.12
2022-11-24T01:03:44.681Z,14.43
2022-11-24T01:06:14.677Z,14.34
2022-11-24T01:08:43.331Z,14.07
2022-11-24T01:11:13.341Z,14.16
2022-11-24T01:13:42.756Z,14.57
2022-11-24T01:16:21.653Z,14.24
2022-11-24T01:18:50.601Z,14.58
2022-11-24T01:21:19.194Z,14.58
2022-11-24T01:23:47.463Z,14.40
2022-11-24T01:26:17.242Z,14.12
2022-11-24T01:28:47.381Z,14.38
2022-11-24T01:31:18.119Z,14.31
2022-11-24T01:33:46.358Z,14.28
2022-11-24T01:36:14.840Z,14.53
2022-11-24T01:38:43.110Z,14.30
2022-11-24T01:41:13.392Z,14.64
2022-11-24T01:43:42.571Z,14.78
2022-11-24T01:46:18.897Z,14.88
2022-11-24T01:48:51.348Z,14.67
2022-11-24T01:51:23.826Z,14.78
2022-11-24T01:53:55.419Z,14.61
2022-11-24T01:56:24.113Z,15.14
2022-11-24T01:58:53.762Z,15.29
2022-11-24T02:01:23.485Z,15.60
2022-11-24T02:03:53.170Z,15.11
2022-11-24T02:06:24.970Z,15.34
2022-11-24T02:08:56.950Z,15.20
2022-11-24T02:11:27.994Z,14.72
2022-11-24T02:13:56.446Z,14.72
2022-11-24T02:16:26.424Z,15.38
2022-11-24T02:18:54.952Z,15.56
2022-11-24T02:21:23.232Z,15.26
2022-11-24T02:23:56.847Z,15.60
2022-11-24T02:26:35.718Z,15.19
2022-11-24T02:29:04.363Z,15.19
2022-11-24T02:31:32.855Z,15.46
2022-11-24T02:34:01.155Z,15.02
2022-11-24T02:36:29.397Z,15.01
2022-11-24T02:38:57.924Z,15.02
2022-11-24T02:41:26.925Z,14.99
2022-11-24T02:43:57.999Z,14.67
2022-11-24T02:46:26.493Z,14.48
2022-11-24T02:48:54.850Z,15.02
2022-11-24T02:51:23.175Z,14.59
2022-11-24T02:53:51.437Z,14.80
2022-11-24T02:56:19.739Z,14.20
2022-11-24T02:58:47.991Z,14.71
2022-11-24T03:01:17.741Z,14.61
2022-11-24T03:03:46.426Z,14.62
2022-11-24T03:06:14.740Z,14.31
2022-11-24T03:08:42.978Z,14.43
2022-11-24T03:11:11.355Z,14.66
2022-11-24T03:13:39.682Z,14.55
2022-11-24T03:16:10.376Z,14.48
2022-11-24T03:18:40.057Z,14.45
2022-11-24T03:21:08.347Z,13.99
2022-11-24T03:23:36.586Z,14.31
2022-11-24T03:26:09.467Z,14.62
2022-11-24T03:28:37.887Z,14.16
2022-11-24T03:31:07.239Z,14.17
2022-11-24T03:33:35.952Z,14.20
2022-11-24T03:36:06.361Z,14.37
2022-11-24T03:38:35.186Z,14.14
2022-11-24T03:41:03.486Z,14.59
2022-11-24T03:43:31.851Z,13.83
2022-11-24T03:46:00.153Z,14.20
2022-11-24T03:48:28.439Z,13.90
2022-11-24T03:50:58.595Z,14.15
2022-11-24T03:53:29.475Z,14.86
2022-11-24T03:55:58.132Z,14.41
2022-11-24T03:58:26.712Z,14.62
2022-11-24T04:00:55.997Z,14.48
2022-11-24T04:03:24.887Z,15.03
2022-11-24T04:05:53.147Z,14.94
2022-11-24T04:08:21.928Z,15.25
2022-11-24T04:10:53.045Z,15.11
2022-11-24T04:13:22.558Z,15.08
2022-11-24T04:15:51.141Z,15.06
2022-11-24T04:18:19.701Z,15.56
2022-11-24T04:20:50.290Z,15.65
2022-11-24T04:23:18.412Z,15.42
2022-11-24T04:25:46.603Z,15.62
2022-11-24T04:28:16.428Z,15.87
2022-11-24T04:30:45.412Z,15.59
2022-11-24T04:33:14.237Z,14.88
2022-11-24T04:35:42.575Z,15.29
2022-11-24T04:38:11.029Z,14.98
2022-11-24T04:40:39.266Z,15.23
2022-11-24T04:43:07.715Z,15.27
2022-11-24T04:45:37.450Z,15.77
2022-11-24T04:48:06.431Z,15.63
2022-11-24T04:50:34.699Z,15.82
2022-11-24T04:53:03.050Z,15.46
2022-11-24T04:55:31.277Z,15.51
2022-11-24T04:57:59.563Z,15.37
2022-11-24T05:00:27.760Z,15.64
2022-11-24T05:02:57.690Z,15.66
2022-11-24T05:05:25.906Z,15.27
2022-11-24T05:07:54.179Z,14.99
2022-11-24T05:10:37.792Z,15.29
2022-11-24T05:13:07.575Z,15.34
2022-11-24T05:15:37.814Z,15.52
2022-11-24T05:18:08.483Z,15.65
2022-11-24T05:20:36.764Z,15.77
2022-11-24T05:23:05.560Z,15.36
2022-11-24T05:25:34.222Z,15.26
2022-11-24T05:28:03.175Z,15.52
2022-11-24T05:30:31.980Z,15.59
2022-11-24T05:33:00.220Z,15.59
2022-11-24T05:35:30.256Z,16.06
2022-11-24T05:37:59.426Z,16.27
2022-11-24T05:40:27.689Z,16.63
2022-11-24T05:42:56.018Z,16.33
2022-11-24T05:45:24.495Z,15.96
2022-11-24T05:47:53.221Z,15.43
2022-11-24T05:50:23.696Z,16.09
2022-11-24T05:52:53.378Z,16.20
2022-11-24T05:55:21.739Z,15.68
2022-11-24T05:57:50.035Z,15.25
2022-11-24T06:00:20.169Z,15.90
2022-11-24T06:02:49.211Z,15.75
2022-11-24T06:05:17.758Z,15.78
2022-11-24T06:07:46.155Z,15.86
2022-11-24T06:10:16.228Z,16.09
2022-11-24T06:12:44.672Z,15.91
2022-11-24T06:15:13.653Z,15.74
2022-11-24T06:17:42.149Z,16.79
2022-11-24T06:20:12.048Z,15.65
2022-11-24T06:22:40.361Z,16.56
2022-11-24T06:25:09.482Z,16.09
2022-11-24T06:27:39.323Z,16.06
2022-11-24T06:30:08.468Z,15.57
2022-11-24T06:32:36.747Z,15.37
2022-11-24T06:35:05.460Z,15.85
2022-11-24T06:37:33.780Z,15.36
2022-11-24T06:40:02.053Z,15.61
2022-11-24T06:42:30.335Z,15.40
2022-11-24T06:45:00.410Z,15.62
2022-11-24T06:47:28.723Z,15.71
2022-11-24T06:49:56.961Z,15.69
2022-11-24T06:52:25.244Z,15.52
2022-11-24T06:54:53.753Z,15.24
2022-11-24T06:57:22.084Z,15.54
2022-11-24T06:59:50.595Z,15.17
2022-11-24T07:02:20.301Z,16.07
2022-11-24T07:04:48.622Z,16.19
2022-11-24T07:07:17.054Z,15.62
2022-11-24T07:09:45.358Z,15.96
2022-11-24T07:12:13.872Z,16.10
2022-11-24T07:14:42.199Z,15.68
2022-11-24T07:17:10.557Z,15.24
2022-11-24T07:19:40.317Z,15.70
2022-11-24T07:22:08.974Z,15.27
2022-11-24T07:24:37.469Z,15.60
2022-11-24T07:27:06.011Z,15.46
2022-11-24T07:29:34.299Z,15.61
2022-11-24T07:32:05.712Z,15.93
2022-11-24T07:34:34.651Z,15.65
2022-11-24T07:37:04.602Z,15.92
2022-11-24T07:39:33.176Z,16.26
2022-11-24T07:42:01.513Z,15.86
2022-11-24T07:44:29.810Z,15.52
2022-11-24T07:46:58.265Z,15.83
2022-11-24T07:49:26.682Z,15.45
2022-11-24T07:51:55.003Z,16.09
2022-11-24T07:54:24.634Z,15.93
2022-11-24T07:56:53.004Z,15.96
2022-11-24T07:59:21.252Z,16.68
2022-11-24T08:01:49.854Z,16.74
2022-11-24T08:04:18.175Z,16.68
2022-11-24T08:06:47.688Z,16.87
2022-11-24T08:09:16.198Z,16.93
2022-11-24T08:11:45.825Z,17.23
2022-11-24T08:14:14.140Z,16.75
2022-11-24T08:16:42.552Z,16.66
2022-11-24T08:19:12.007Z,16.48
2022-11-24T08:21:40.323Z,17.16
2022-11-24T08:24:09.674Z,16.47
2022-11-24T08:26:37.993Z,16.63
2022-11-24T08:29:07.747Z,16.99
2022-11-24T08:31:38.001Z,17.26
2022-11-24T08:34:07.379Z,16.85
2022-11-24T08:36:35.765Z,16.20
2022-11-24T08:39:04.454Z,17.24
2022-11-24T08:41:33.780Z,16.74
2022-11-24T08:44:02.040Z,16.54
2022-11-24T08:46:31.919Z,16.74
2022-11-24T08:49:00.286Z,16.61
2022-11-24T08:51:28.811Z,16.70
2022-11-24T08:53:58.317Z,16.59
2022-11-24T08:56:27.527Z,16.74
2022-11-24T08:58:56.115Z,16.62
2022-11-24T09:01:25.214Z,17.46
2022-11-24T09:03:55.215Z,17.17
2022-11-24T09:06:25.786Z,17.29
2022-11-24T09:08:55.457Z,17.63
2022-11-24T09:11:24.341Z,17.13
2022-11-24T09:13:53.079Z,16.94
2022-11-24T09:16:23.547Z,17.68
2022-11-24T09:18:57.400Z,17.46
2022-11-24T09:21:25.719Z,17.84
2022-11-24T09:23:55.076Z,17.64
2022-11-24T09:26:25.030Z,17.78
2022-11-24T09:28:55.471Z,17.47
2022-11-24T09:31:25.960Z,17.65
2022-11-24T09:33:54.473Z,17.30
2022-11-24T09:36:24.795Z,17.27
2022-11-24T09:38:53.155Z,17.72
2022-11-24T09:42:12.326Z,17.24
2022-11-24T09:45:12.418Z,17.42
2022-11-24T09:47:48.641Z,17.64
2022-11-24T09:50:18.650Z,17.83
2022-11-24T09:52:51.136Z,17.80
2022-11-24T09:55:27.026Z,17.00
2022-11-24T09:58:00.541Z,16.97
2022-11-24T10:00:30.116Z,17.67
2022-11-24T10:02:58.851Z,17.41
2022-11-24T10:05:27.767Z,17.02
2022-11-24T10:08:05.129Z,16.76
2022-11-24T10:10:42.063Z,17.21
2022-11-24T10:13:20.939Z,17.07
2022-11-24T10:15:53.725Z,17.18
2022-11-24T10:18:35.191Z,16.71
2022-11-24T10:21:14.871Z,17.59
2022-11-24T10:23:56.455Z,17.09
2022-11-24T10:26:32.846Z,17.03
2022-11-24T10:29:01.836Z,16.81
2022-11-24T10:31:31.871Z,16.92
2022-11-24T10:34:03.151Z,16.77
2022-11-24T10:36:37.159Z,16.32
2022-11-24T10:39:12.219Z,16.33
2022-11-24T10:41:45.303Z,15.59
2022-11-24T10:44:14.970Z,15.13
2022-11-24T10:46:43.674Z,15.19
2022-11-24T10:49:19.833Z,14.89
2022-11-24T10:51:56.338Z,14.84
2022-11-24T10:54:26.055Z,14.41
2022-11-24T10:56:55.943Z,14.96
2022-11-24T10:59:39.555Z,15.18
2022-11-24T11:02:38.209Z,14.73
2022-11-24T11:05:33.013Z,14.70
2022-11-24T11:08:15.845Z,15.45
2022-11-24T11:10:46.241Z,15.46
2022-11-24T11:13:29.030Z,16.22
2022-11-24T11:15:58.822Z,16.03
2022-11-24T11:18:32.459Z,15.34
2022-11-24T11:21:03.022Z,16.08
2022-11-24T11:23:32.303Z,16.38
2022-11-24T11:26:28.221Z,16.46
2022-11-24T11:35:07.673Z,16.21
2022-11-24T11:37:37.210Z,16.12
2022-11-24T11:40:13.834Z,15.94
2022-11-24T11:43:03.193Z,16.38
2022-11-24T11:45:36.390Z,15.97
2022-11-24T11:48:20.577Z,15.74
2022-11-24T11:51:21.642Z,15.85
2022-11-24T11:53:45.305Z,16.04
2022-11-24T11:56:22.489Z,16.19
2022-11-24T11:59:26.555Z,16.06
2022-11-24T12:02:26.297Z,16.56
2022-11-24T12:04:58.092Z,16.24
2022-11-24T12:07:40.379Z,16.62
2022-11-24T12:10:19.087Z,16.31
2022-11-24T12:13:05.428Z,16.19
2022-11-24T12:15:39.081Z,16.11
2022-11-24T12:18:48.381Z,16.44
2022-11-24T12:21:13.845Z,15.65
2022-11-24T12:23:51.231Z,16.25
2022-11-24T12:26:24.626Z,16.48
2022-11-24T12:29:01.639Z,15.72
2022-11-24T12:31:40.370Z,16.28
2022-11-24T12:34:24.349Z,16.12
2022-11-24T12:37:00.845Z,16.27
2022-11-24T12:39:33.097Z,15.97
2022-11-24T12:42:08.318Z,16.64
2022-11-24T12:44:53.799Z,16.10
2022-11-24T12:47:28.120Z,16.35
2022-11-24T12:50:03.736Z,16.79
2022-11-24T12:52:36.000Z,17.16
2022-11-24T12:55:05.252Z,16.31
2022-11-24T12:57:37.887Z,16.26
2022-11-24T13:00:09.485Z,16.23
2022-11-24T13:02:56.271Z,16.33
2022-11-24T13:05:26.763Z,15.96
2022-11-24T13:07:58.472Z,16.85
2022-11-24T13:10:54.812Z,16.56
2022-11-24T13:13:20.877Z,16.29
2022-11-24T13:19:09.126Z,16.22
2022-11-24T13:21:57.951Z,15.77
2022-11-24T13:24:28.027Z,16.26
2022-11-24T13:27:41.087Z,16.06
2022-11-24T13:30:52.080Z,16.47
2022-11-24T13:33:32.329Z,16.61
2022-11-24T13:36:53.645Z,16.20
2022-11-24T13:39:22.736Z,16.23
2022-11-24T13:42:42.743Z,15.99
2022-11-24T13:45:01.647Z,16.13
2022-11-24T13:47:39.029Z,16.23
2022-11-24T13:50:15.591Z,16.30
2022-11-24T13:52:47.819Z,15.95
2022-11-24T13:55:23.578Z,23.06
2022-11-24T13:57:53.728Z,27.52
2022-11-24T14:00:23.903Z,16.55
2022-11-24T14:02:54.125Z,14.69
2022-11-24T14:05:25.383Z,14.00
2022-11-24T14:07:55.361Z,13.40
2022-11-24T14:10:27.598Z,13.67
2022-11-24T14:13:17.289Z,13.50
2022-11-24T14:15:45.743Z,13.75
2022-11-24T14:18:18.784Z,13.36
2022-11-24T14:20:47.072Z,13.54
2022-11-24T14:23:16.703Z,13.27
2022-11-24T14:25:49.181Z,13.57
2022-11-24T14:28:23.728Z,13.86
2022-11-24T14:30:52.440Z,13.78
2022-11-24T14:33:21.066Z,13.60
2022-11-24T14:35:51.358Z,13.33
2022-11-24T14:38:20.955Z,13.40
2022-11-24T14:40:51.325Z,13.66
2022-11-24T14:43:24.183Z,13.36
2022-11-24T14:45:54.636Z,13.36
2022-11-24T14:48:26.844Z,13.50
2022-11-24T14:50:56.835Z,13.46
2022-11-24T14:53:26.548Z,13.02
2022-11-24T14:56:11.879Z,13.22
2022-11-24T14:58:42.370Z,13.19
2022-11-24T15:01:18.174Z,13.47
2022-11-24T15:03:46.787Z,13.70
2022-11-24T15:06:18.939Z,13.59
2022-11-24T15:08:50.327Z,13.74
2022-11-24T15:11:18.804Z,13.97
2022-11-24T15:13:55.083Z,14.17
2022-11-24T15:16:25.042Z,14.04
2022-11-24T15:18:58.754Z,13.95
2022-11-24T15:21:34.192Z,13.36
2022-11-24T15:24:08.586Z,13.53
2022-11-24T15:26:41.773Z,13.68
2022-11-24T15:29:10.806Z,13.67
2022-11-24T15:31:39.319Z,13.19
2022-11-24T15:34:08.048Z,13.66
2022-11-24T15:36:36.367Z,13.45
2022-11-24T15:39:05.983Z,13.25
2022-11-24T15:41:34.697Z,12.66
2022-11-24T15:44:03.217Z,12.94
2022-11-24T15:46:37.684Z,13.22
2022-11-24T15:49:07.094Z,12.64
2022-11-24T15:51:36.620Z,12.91
2022-11-24T15:54:07.247Z,12.95
2022-11-24T15:56:36.373Z,13.22
2022-11-24T15:59:05.585Z,12.92
2022-11-24T16:01:35.072Z,12.73
2022-11-24T16:04:03.564Z,12.85
2022-11-24T16:06:31.933Z,12.89
2022-11-24T16:09:00.309Z,12.24
2022-11-24T16:11:29.965Z,11.62
2022-11-24T16:13:58.310Z,11.92
2022-11-24T16:16:26.695Z,12.06
2022-11-24T16:18:54.976Z,12.39
2022-11-24T16:21:23.289Z,12.55
2022-11-24T16:23:51.827Z,12.29
2022-11-24T16:26:20.109Z,12.90
2022-11-24T16:28:49.715Z,13.35
2022-11-24T16:31:19.053Z,13.16
2022-11-24T16:33:47.394Z,13.04
2022-11-24T16:36:15.741Z,12.91
2022-11-24T16:38:43.987Z,13.11
2022-11-24T16:41:13.617Z,13.07
2022-11-24T16:43:41.914Z,13.32
2022-11-24T16:46:19.641Z,13.37
2022-11-24T16:48:48.982Z,13.57
2022-11-24T16:51:18.322Z,13.74
2022-11-24T16:53:46.820Z,13.85
2022-11-24T16:56:16.466Z,13.66
2022-11-24T16:58:44.835Z,13.88
2022-11-24T17:01:14.446Z,13.80
2022-11-24T17:03:44.246Z,14.01
2022-11-24T17:06:15.781Z,14.00
2022-11-24T17:08:45.097Z,13.83
2022-11-24T17:11:15.262Z,14.27
2022-11-24T17:13:44.391Z,14.24
2022-11-24T17:16:14.158Z,14.29
2022-11-24T17:18:44.446Z,14.25
2022-11-24T17:21:14.421Z,14.25
2022-11-24T17:23:42.951Z,14.01
2022-11-24T17:26:13.316Z,14.01
2022-11-24T17:28:42.224Z,14.17
2022-11-24T17:31:11.120Z,13.81
2022-11-24T17:33:39.357Z,13.85
2022-11-24T17:36:09.847Z,14.22
2022-11-24T17:38:38.080Z,14.00
2022-11-24T17:41:06.585Z,13.78
2022-11-24T17:43:35.079Z,13.87
2022-11-24T17:46:04.249Z,13.22
2022-11-24T17:48:33.254Z,13.23
2022-11-24T17:51:03.224Z,13.29
2022-11-24T17:53:33.257Z,12.88
2022-11-24T17:56:02.089Z,12.93
2022-11-24T17:58:31.038Z,12.96
2022-11-24T18:00:59.647Z,12.80
2022-11-24T18:03:28.856Z,12.75
2022-11-24T18:05:57.352Z,12.82
2022-11-24T18:08:25.667Z,12.85
2022-11-24T18:10:55.246Z,12.94
2022-11-24T18:13:48.927Z,13.13
2022-11-24T18:16:13.683Z,13.15
2022-11-24T18:18:46.066Z,12.93
2022-11-24T18:21:18.711Z,13.07
2022-11-24T18:23:47.379Z,12.74
2022-11-24T18:26:17.350Z,13.13
2022-11-24T18:28:46.283Z,12.86
2022-11-24T18:31:16.062Z,12.92
2022-11-24T18:33:45.518Z,12.61
2022-11-24T18:36:15.528Z,13.09
2022-11-24T18:38:43.892Z,12.89
2022-11-24T18:41:13.792Z,12.62
2022-11-24T18:43:44.259Z,12.57
2022-11-24T18:46:13.951Z,12.77
2022-11-24T18:48:42.401Z,12.65
2022-11-24T18:51:14.619Z,12.82
2022-11-24T18:53:43.577Z,12.92
2022-11-24T18:56:14.058Z,12.86
2022-11-24T18:58:44.387Z,13.24
2022-11-24T19:01:14.402Z,13.36
2022-11-24T19:03:48.795Z,13.45
2022-11-24T19:06:19.368Z,13.24
2022-11-24T19:08:48.517Z,13.01
2022-11-24T19:11:20.736Z,13.48
2022-11-24T19:13:50.621Z,13.58
2022-11-24T19:16:20.232Z,13.59
2022-11-24T19:18:53.904Z,13.43
2022-11-24T19:21:23.187Z,13.36
2022-11-24T19:23:51.641Z,13.45
2022-11-24T19:26:20.249Z,13.56
2022-11-24T19:28:50.183Z,13.73
2022-11-24T19:31:19.320Z,13.80
2022-11-24T19:33:47.804Z,13.69
2022-11-24T19:36:17.732Z,13.69
2022-11-24T19:38:51.198Z,13.60
2022-11-24T19:41:21.342Z,13.55
2022-11-24T19:43:53.285Z,13.55
2022-11-24T19:46:22.637Z,13.34
2022-11-24T19:48:54.131Z,13.42
2022-11-24T19:51:24.186Z,13.40
2022-11-24T19:53:53.042Z,13.21
2022-11-24T19:56:23.170Z,13.06
2022-11-24T19:58:54.077Z,12.80
2022-11-24T20:01:24.600Z,12.81
2022-11-24T20:03:55.094Z,12.81
2022-11-24T20:06:23.272Z,12.77
2022-11-24T20:08:51.583Z,12.65
2022-11-24T20:11:21.225Z,12.73
2022-11-24T20:13:49.929Z,12.60
2022-11-24T20:16:20.928Z,12.43
2022-11-24T20:18:49.334Z,12.52
2022-11-24T20:21:19.027Z,12.53
2022-11-24T20:23:52.015Z,12.28
2022-11-24T20:26:22.980Z,12.25
2022-11-24T20:28:52.548Z,12.26
2022-11-24T20:31:24.065Z,12.02
2022-11-24T20:33:52.707Z,12.09
2022-11-24T20:36:22.447Z,12.06
2022-11-24T20:38:51.531Z,12.16
2022-11-24T20:41:21.381Z,12.26
2022-11-24T20:43:50.377Z,12.30
2022-11-24T20:46:20.324Z,12.26
2022-11-24T20:48:50.194Z,12.33
2022-11-24T20:51:21.386Z,12.20
2022-11-24T20:53:50.310Z,12.13
2022-11-24T20:56:20.703Z,11.96
2022-11-24T20:58:49.491Z,12.00
2022-11-24T21:01:20.006Z,11.84
2022-11-24T21:03:55.076Z,11.77
2022-11-24T21:06:23.917Z,11.69
2022-11-24T21:08:52.686Z,11.15
2022-11-24T21:11:22.096Z,11.33
2022-11-24T21:13:50.613Z,11.48
2022-11-24T21:16:21.173Z,11.33
2022-11-24T21:18:51.722Z,11.29
2022-11-24T21:21:20.955Z,11.32
2022-11-24T21:23:49.872Z,11.09
2022-11-24T21:26:19.035Z,10.92
2022-11-24T21:28:48.329Z,10.78
2022-11-24T21:31:19.054Z,10.92
2022-11-24T21:33:48.688Z,10.85
2022-11-24T21:36:19.975Z,10.94
2022-11-24T21:38:51.711Z,10.78
2022-11-24T21:41:20.763Z,10.72
2022-11-24T21:43:49.996Z,10.70
2022-11-24T21:46:18.556Z,10.80
2022-11-24T21:48:46.960Z,10.71
2022-11-24T21:51:16.256Z,10.47
2022-11-24T21:53:46.453Z,10.18
2022-11-24T21:56:17.096Z,9.90
2022-11-24T21:58:47.254Z,9.46
2022-11-24T22:01:16.351Z,9.41
2022-11-24T22:03:45.765Z,9.41
2022-11-24T22:06:14.379Z,9.74
2022-11-24T22:08:42.646Z,9.93
2022-11-24T22:11:14.935Z,10.02
2022-11-24T22:13:44.092Z,10.03
2022-11-24T22:16:14.555Z,10.06
2022-11-24T22:18:44.272Z,9.99
2022-11-24T22:21:15.550Z,10.32
2022-11-24T22:23:44.025Z,10.34
2022-11-24T22:26:15.526Z,10.15
2022-11-24T22:28:44.544Z,10.13
2022-11-24T22:31:14.563Z,10.12
2022-11-24T22:33:43.626Z,10.11
2022-11-24T22:36:12.370Z,10.11
2022-11-24T22:38:41.121Z,10.07
2022-11-24T22:41:11.008Z,10.07
2022-11-24T22:43:41.613Z,10.08
2022-11-24T22:46:11.094Z,10.14
2022-11-24T22:48:40.161Z,9.55
2022-11-24T22:51:10.621Z,9.57
2022-11-24T22:53:39.578Z,9.72
2022-11-24T22:56:09.890Z,9.78
2022-11-24T22:58:39.933Z,9.40
2022-11-24T23:01:09.481Z,9.24
2022-11-24T23:03:38.599Z,9.51
2022-11-24T23:06:08.569Z,9.37
2022-11-24T23:08:37.506Z,9.44
2022-11-24T23:11:06.911Z,9.52
2022-11-24T23:13:35.331Z,9.57
2022-11-24T23:16:06.768Z,9.40
2022-11-24T23:18:35.583Z,9.44
2022-11-24T23:21:08.164Z,9.51
2022-11-24T23:23:36.501Z,9.66
2022-11-24T23:26:05.935Z,9.54
2022-11-24T23:28:34.698Z,9.69
2022-11-24T23:31:05.844Z,9.66
2022-11-24T23:33:34.457Z,9.74
2022-11-24T23:36:03.249Z,9.78
2022-11-24T23:38:32.821Z,9.81
2022-11-24T23:41:04.089Z,9.93
2022-11-24T23:43:32.786Z,9.87
2022-11-24T23:46:05.944Z,9.83
2022-11-24T23:48:34.632Z,9.77
2022-11-24T23:51:06.941Z,10.01
2022-11-24T23:53:35.770Z,9.94
2022-11-24T23:56:04.650Z,10.07
2022-11-24T23:58:33.369Z,9.68
